createdAt,value
2018-10-05T00:00:41.227Z,5.20
2018-10-05T00:03:09.374Z,4.60
2018-10-05T00:05:37.509Z,4.80
2018-10-05T00:08:05.722Z,4.90
2018-10-05T00:10:33.866Z,5.60
2018-10-05T00:13:02.021Z,5.10
2018-10-05T00:15:30.171Z,5.30
2018-10-05T00:17:58.322Z,5.40
2018-10-05T00:20:26.530Z,5.30
2018-10-05T00:22:54.615Z,5.55
2018-10-05T00:25:22.746Z,5.00
2018-10-05T00:27:50.888Z,5.55
2018-10-05T00:30:19.026Z,5.40
2018-10-05T00:32:47.218Z,5.90
2018-10-05T00:35:15.371Z,6.00
2018-10-05T00:37:43.502Z,5.62
2018-10-05T00:40:11.697Z,5.40
2018-10-05T00:42:39.857Z,5.28
2018-10-05T00:45:08.053Z,5.70
2018-10-05T00:47:36.241Z,5.00
2018-10-05T00:50:04.423Z,5.50
2018-10-05T00:52:32.627Z,4.70
2018-10-05T00:55:00.784Z,4.43
2018-10-05T00:57:28.942Z,4.20
2018-10-05T00:59:57.117Z,4.80
2018-10-05T01:02:25.284Z,4.30
2018-10-05T01:04:53.469Z,3.40
2018-10-05T01:07:21.616Z,4.00
2018-10-05T01:09:49.762Z,3.77
2018-10-05T01:12:17.931Z,5.10
2018-10-05T01:14:46.107Z,4.63
2018-10-05T01:17:14.288Z,4.03
2018-10-05T01:19:42.982Z,4.60
2018-10-05T01:22:11.146Z,5.27
2018-10-05T01:24:39.334Z,4.37
2018-10-05T01:27:07.471Z,4.10
2018-10-05T01:29:35.620Z,4.33
2018-10-05T01:32:03.775Z,4.33
2018-10-05T01:34:31.942Z,4.70
2018-10-05T01:37:00.104Z,4.23
2018-10-05T01:39:28.274Z,4.40
2018-10-05T01:41:56.462Z,3.90
2018-10-05T01:44:24.652Z,4.77
2018-10-05T01:46:52.807Z,4.90
2018-10-05T01:49:20.962Z,3.90
2018-10-05T01:51:49.132Z,3.93
2018-10-05T01:54:17.299Z,4.00
2018-10-05T01:56:45.469Z,4.50
2018-10-05T01:59:13.647Z,4.33
2018-10-05T02:01:41.839Z,4.63
2018-10-05T02:04:10.011Z,3.87
2018-10-05T02:06:38.207Z,4.10
2018-10-05T02:09:06.466Z,4.10
2018-10-05T02:11:34.653Z,3.80
2018-10-05T02:14:02.883Z,4.30
2018-10-05T02:16:31.076Z,4.50
2018-10-05T02:18:59.258Z,4.47
2018-10-05T02:21:27.451Z,4.23
2018-10-05T02:23:55.623Z,4.17
2018-10-05T02:26:23.836Z,3.90
2018-10-05T02:28:52.015Z,4.53
2018-10-05T02:31:20.199Z,4.00
2018-10-05T02:33:48.395Z,4.53
2018-10-05T02:36:16.570Z,4.00
2018-10-05T02:38:44.742Z,4.47
2018-10-05T02:41:12.940Z,4.20
2018-10-05T02:43:41.107Z,4.40
2018-10-05T02:46:09.299Z,3.93
2018-10-05T02:48:37.480Z,4.43
2018-10-05T02:51:05.670Z,5.00
2018-10-05T02:53:33.827Z,5.03
2018-10-05T02:56:02.150Z,4.30
2018-10-05T02:58:30.371Z,4.80
2018-10-05T03:01:09.959Z,4.90
2018-10-05T03:03:38.969Z,3.73
2018-10-05T03:06:07.199Z,4.23
2018-10-05T03:08:35.366Z,3.37
2018-10-05T03:11:03.559Z,4.33
2018-10-05T03:13:31.722Z,4.93
2018-10-05T03:15:59.906Z,4.33
2018-10-05T03:18:28.094Z,4.63
2018-10-05T03:20:56.535Z,4.70
2018-10-05T03:23:24.786Z,4.70
2018-10-05T03:25:52.990Z,4.95
2018-10-05T03:28:21.210Z,5.75
2018-10-05T03:30:49.407Z,5.35
2018-10-05T03:33:17.614Z,4.90
2018-10-05T03:35:45.798Z,5.53
2018-10-05T03:38:14.007Z,4.97
2018-10-05T03:40:42.210Z,4.70
2018-10-05T03:43:10.375Z,5.03
2018-10-05T03:45:38.547Z,5.00
2018-10-05T03:48:06.742Z,5.00
2018-10-05T03:50:34.907Z,5.58
2018-10-05T03:53:03.462Z,5.33
2018-10-05T03:55:31.650Z,5.90
2018-10-05T03:57:59.846Z,5.80
2018-10-05T04:00:28.118Z,5.80
2018-10-05T04:02:56.287Z,6.17
2018-10-05T04:05:24.471Z,5.85
2018-10-05T04:07:52.664Z,6.30
2018-10-05T04:10:20.838Z,5.65
2018-10-05T04:12:49.035Z,5.70
2018-10-05T04:15:17.206Z,5.50
2018-10-05T04:17:45.395Z,5.72
2018-10-05T04:20:13.615Z,6.10
2018-10-05T04:22:41.807Z,5.62
2018-10-05T04:25:10.004Z,5.55
2018-10-05T04:27:38.186Z,5.12
2018-10-05T04:30:06.370Z,5.25
2018-10-05T04:32:34.563Z,5.85
2018-10-05T04:35:02.765Z,6.25
2018-10-05T04:37:30.982Z,5.62
2018-10-05T04:39:59.154Z,7.22
2018-10-05T04:42:27.343Z,6.45
2018-10-05T04:44:55.532Z,7.28
2018-10-05T04:47:23.711Z,8.60
2018-10-05T04:49:51.920Z,8.80
2018-10-05T04:52:20.115Z,9.60
2018-10-05T04:54:48.411Z,10.82
2018-10-05T04:57:16.618Z,10.88
2018-10-05T04:59:44.835Z,14.40
2018-10-05T05:02:13.047Z,12.10
2018-10-05T05:04:41.258Z,11.15
2018-10-05T05:07:09.471Z,8.10
2018-10-05T05:09:37.687Z,7.20
2018-10-05T05:12:05.930Z,7.50
2018-10-05T05:14:34.093Z,7.20
2018-10-05T05:17:02.274Z,7.80
2018-10-05T05:19:30.495Z,8.45
2018-10-05T05:21:58.655Z,8.20
2018-10-05T05:24:26.842Z,8.78
2018-10-05T05:26:55.029Z,8.48
2018-10-05T05:29:23.247Z,8.70
2018-10-05T05:31:51.437Z,8.33
2018-10-05T05:34:19.638Z,7.30
2018-10-05T05:36:47.814Z,7.60
2018-10-05T05:39:16.002Z,7.10
2018-10-05T05:41:44.180Z,7.95
2018-10-05T05:44:12.346Z,8.20
2018-10-05T05:46:40.538Z,8.78
2018-10-05T05:49:08.690Z,7.95
2018-10-05T05:51:36.865Z,8.78
2018-10-05T05:54:05.069Z,8.95
2018-10-05T05:56:33.330Z,8.40
2018-10-05T05:59:01.536Z,9.40
2018-10-05T06:01:29.723Z,10.13
2018-10-05T06:03:57.917Z,8.80
2018-10-05T06:06:26.094Z,9.30
2018-10-05T06:08:54.344Z,9.00
2018-10-05T06:11:22.523Z,8.87
2018-10-05T06:13:50.702Z,8.20
2018-10-05T06:16:18.946Z,9.67
2018-10-05T06:18:47.067Z,8.60
2018-10-05T06:21:15.263Z,9.50
2018-10-05T06:23:43.446Z,9.27
2018-10-05T06:26:11.647Z,10.50
2018-10-05T06:28:39.838Z,9.80
2018-10-05T06:31:50.890Z,10.80
2018-10-05T06:34:19.075Z,9.77
2018-10-05T06:36:47.278Z,9.83
2018-10-05T06:39:15.544Z,9.30
2018-10-05T06:41:43.678Z,10.53
2018-10-05T06:44:11.879Z,11.03
2018-10-05T06:46:40.074Z,10.77
2018-10-05T06:49:08.248Z,9.97
2018-10-05T06:51:36.430Z,11.10
2018-10-05T06:54:04.599Z,10.63
2018-10-05T06:56:32.787Z,12.77
2018-10-05T06:59:00.974Z,12.90
2018-10-05T07:01:29.213Z,12.93
2018-10-05T07:03:57.319Z,9.83
2018-10-05T07:06:25.495Z,9.70
2018-10-05T07:08:53.663Z,9.57
2018-10-05T07:11:21.907Z,9.90
2018-10-05T07:13:50.046Z,9.90
2018-10-05T07:16:18.246Z,10.63
2018-10-05T07:18:46.434Z,12.83
2018-10-05T07:21:14.616Z,12.80
2018-10-05T07:23:42.775Z,11.13
2018-10-05T07:26:10.974Z,12.10
2018-10-05T07:28:39.174Z,12.73
2018-10-05T07:31:07.424Z,12.83
2018-10-05T07:33:35.654Z,12.13
2018-10-05T07:36:03.826Z,13.23
2018-10-05T07:38:32.019Z,13.87
2018-10-05T07:41:00.250Z,12.10
2018-10-05T07:43:28.435Z,12.50
2018-10-05T07:45:56.635Z,12.93
2018-10-05T07:48:24.803Z,12.93
2018-10-05T07:50:52.983Z,12.97
2018-10-05T07:53:21.162Z,12.77
2018-10-05T07:55:49.357Z,13.73
2018-10-05T07:58:17.547Z,13.13
2018-10-05T08:00:45.726Z,15.60
2018-10-05T08:03:13.903Z,15.07
2018-10-05T08:05:42.082Z,13.87
2018-10-05T08:08:10.258Z,15.23
2018-10-05T08:10:38.439Z,16.10
2018-10-05T08:13:06.680Z,15.03
2018-10-05T08:15:34.850Z,19.60
2018-10-05T08:18:03.033Z,23.03
2018-10-05T08:20:31.221Z,21.53
2018-10-05T08:22:59.419Z,21.70
2018-10-05T08:25:27.583Z,18.63
2018-10-05T08:27:55.814Z,17.40
2018-10-05T08:30:23.960Z,17.23
2018-10-05T08:32:52.147Z,18.63
2018-10-05T08:35:20.329Z,16.53
2018-10-05T08:37:48.523Z,16.40
2018-10-05T08:40:16.873Z,16.10
2018-10-05T08:42:44.899Z,15.97
2018-10-05T08:45:13.074Z,16.17
2018-10-05T08:47:42.264Z,14.90
2018-10-05T08:50:10.467Z,13.97
2018-10-05T08:52:38.647Z,15.13
2018-10-05T08:55:06.830Z,16.17
2018-10-05T08:57:35.019Z,14.47
2018-10-05T09:00:03.238Z,15.50
2018-10-05T09:02:31.410Z,14.60
2018-10-05T09:04:59.599Z,14.97
2018-10-05T09:07:27.790Z,16.50
2018-10-05T09:09:55.971Z,15.10
2018-10-05T09:12:24.172Z,16.40
2018-10-05T09:14:52.383Z,15.23
2018-10-05T09:17:20.562Z,16.53
2018-10-05T09:19:48.755Z,16.30
2018-10-05T09:22:16.935Z,16.97
2018-10-05T09:24:45.098Z,16.03
2018-10-05T09:27:13.295Z,14.33
2018-10-05T09:29:41.878Z,15.30
2018-10-05T09:32:10.111Z,14.00
2018-10-05T09:34:38.298Z,15.93
2018-10-05T09:37:06.482Z,16.37
2018-10-05T09:39:34.654Z,16.83
2018-10-05T09:49:25.370Z,18.20
2018-10-05T09:51:53.567Z,18.17
2018-10-05T09:54:21.746Z,18.30
2018-10-05T09:56:49.942Z,19.17
2018-10-05T09:59:18.139Z,19.73
2018-10-05T10:02:23.946Z,18.77
2018-10-05T10:04:52.135Z,18.90
2018-10-05T10:07:20.335Z,18.92
2018-10-05T10:09:48.535Z,18.75
2018-10-05T10:12:16.796Z,17.92
2018-10-05T10:14:44.987Z,17.50
2018-10-05T10:17:13.174Z,15.90
2018-10-05T10:19:41.406Z,14.67
2018-10-05T10:22:09.627Z,14.40
2018-10-05T10:24:37.823Z,14.60
2018-10-05T10:39:23.620Z,12.83
2018-10-05T10:41:51.812Z,11.80
2018-10-05T10:44:19.995Z,12.50
2018-10-05T10:46:48.166Z,12.20
2018-10-05T10:49:16.343Z,11.50
2018-10-05T10:51:44.515Z,11.03
2018-10-05T10:54:12.785Z,11.07
2018-10-05T10:56:40.882Z,10.80
2018-10-05T10:59:09.070Z,12.13
2018-10-05T11:01:37.250Z,13.00
2018-10-05T11:04:05.523Z,13.00
2018-10-05T11:06:33.644Z,11.73
2018-10-05T11:09:01.814Z,8.90
2018-10-05T11:11:30.012Z,9.90
2018-10-05T11:13:58.200Z,10.50
2018-10-05T11:16:26.392Z,9.97
2018-10-05T11:18:54.570Z,9.90
2018-10-05T11:21:22.775Z,11.17
2018-10-05T11:23:50.955Z,11.70
2018-10-05T11:26:19.154Z,12.30
2018-10-05T11:28:47.343Z,11.13
2018-10-05T11:31:15.531Z,10.40
2018-10-05T11:33:43.706Z,13.40
2018-10-05T11:36:11.875Z,13.40
2018-10-05T11:38:40.059Z,12.50
2018-10-05T11:41:08.252Z,14.83
2018-10-05T11:43:36.444Z,13.13
2018-10-05T11:46:04.627Z,12.37
2018-10-05T11:48:32.799Z,12.30
2018-10-05T11:51:00.987Z,10.73
2018-10-05T11:53:29.154Z,10.87
2018-10-05T11:55:57.335Z,12.13
2018-10-05T11:58:25.524Z,11.63
2018-10-05T12:00:53.707Z,11.43
2018-10-05T12:03:21.882Z,11.90
2018-10-05T12:05:50.077Z,10.00
2018-10-05T12:08:18.251Z,10.83
2018-10-05T12:10:46.447Z,10.50
2018-10-05T12:13:14.614Z,9.33
2018-10-05T12:15:42.803Z,7.80
2018-10-05T12:18:11.020Z,7.60
2018-10-05T12:20:39.186Z,8.60
2018-10-05T12:23:07.359Z,7.50
2018-10-05T12:25:35.539Z,7.27
2018-10-05T12:28:03.711Z,7.47
2018-10-05T12:30:31.898Z,8.00
2018-10-05T12:33:00.063Z,6.93
2018-10-05T12:35:28.239Z,7.80
2018-10-05T12:37:56.406Z,7.70
2018-10-05T12:40:24.595Z,6.93
2018-10-05T12:42:52.768Z,6.70
2018-10-05T12:45:20.954Z,7.43
2018-10-05T12:47:49.190Z,7.50
2018-10-05T12:50:17.380Z,6.97
2018-10-05T12:52:45.634Z,7.13
2018-10-05T12:55:14.133Z,6.57
2018-10-05T12:57:42.304Z,7.57
2018-10-05T13:00:10.490Z,7.00
2018-10-05T13:02:38.659Z,6.43
2018-10-05T13:05:06.941Z,5.67
2018-10-05T13:07:35.079Z,4.30
2018-10-05T13:10:03.272Z,5.15
2018-10-05T13:12:31.470Z,5.20
2018-10-05T13:14:59.635Z,6.13
2018-10-05T13:17:27.814Z,5.10
2018-10-05T13:19:55.986Z,4.97
2018-10-05T13:22:24.163Z,4.63
2018-10-05T13:24:52.377Z,4.70
2018-10-05T13:27:20.531Z,5.83
2018-10-05T13:29:48.725Z,4.60
2018-10-05T13:32:16.943Z,4.50
2018-10-05T13:34:45.151Z,5.65
2018-10-05T13:37:13.410Z,4.80
2018-10-05T13:39:41.527Z,4.00
2018-10-05T13:42:09.750Z,5.93
2018-10-05T13:44:37.890Z,4.85
2018-10-05T13:47:06.092Z,4.45
2018-10-05T13:49:34.271Z,3.92
2018-10-05T13:52:02.451Z,4.05
2018-10-05T13:54:30.638Z,5.37
2018-10-05T13:56:58.847Z,15.13
2018-10-05T13:59:27.031Z,4.30
2018-10-05T14:01:55.211Z,4.03
2018-10-05T14:04:23.383Z,3.58
2018-10-05T14:06:51.574Z,3.40
2018-10-05T14:09:19.738Z,3.70
2018-10-05T14:11:47.939Z,4.05
2018-10-05T14:14:16.122Z,3.60
2018-10-05T14:16:44.312Z,3.87
2018-10-05T14:19:12.568Z,3.90
2018-10-05T14:21:40.776Z,3.37
2018-10-05T14:24:08.899Z,5.00
2018-10-05T14:26:37.110Z,3.42
2018-10-05T14:29:05.287Z,3.30
2018-10-05T14:31:33.490Z,3.00
2018-10-05T14:34:01.673Z,3.00
2018-10-05T14:36:29.892Z,3.60
2018-10-05T14:38:58.151Z,3.90
2018-10-05T14:41:26.348Z,3.08
2018-10-05T14:43:55.132Z,3.30
2018-10-05T14:46:23.434Z,2.95
2018-10-05T14:48:51.642Z,3.37
2018-10-05T14:51:19.802Z,2.92
2018-10-05T14:53:47.982Z,3.60
2018-10-05T14:56:16.162Z,2.93
2018-10-05T14:58:44.363Z,3.25
2018-10-05T15:01:12.587Z,2.67
2018-10-05T15:03:40.778Z,2.83
2018-10-05T15:06:09.060Z,2.80
2018-10-05T15:08:37.231Z,2.80
2018-10-05T15:11:05.412Z,2.80
2018-10-05T15:13:33.594Z,2.62
2018-10-05T15:16:01.790Z,2.50
2018-10-05T15:18:29.987Z,3.15
2018-10-05T15:20:58.159Z,3.30
2018-10-05T15:23:26.348Z,3.30
2018-10-05T15:25:54.514Z,3.35
2018-10-05T15:28:22.711Z,3.02
2018-10-05T15:30:50.882Z,3.10
2018-10-05T15:33:19.079Z,3.60
2018-10-05T15:35:47.247Z,2.70
2018-10-05T15:38:15.433Z,3.95
2018-10-05T15:40:43.638Z,3.50
2018-10-05T15:43:11.827Z,3.90
2018-10-05T15:45:40.035Z,3.00
2018-10-05T15:48:08.225Z,2.40
2018-10-05T15:50:36.390Z,2.80
2018-10-05T15:53:04.661Z,3.00
2018-10-05T15:55:32.771Z,2.80
2018-10-05T15:58:00.964Z,3.55
2018-10-05T16:00:29.143Z,3.30
2018-10-05T16:02:57.355Z,3.05
2018-10-05T16:05:25.588Z,3.20
2018-10-05T16:07:53.725Z,3.20
2018-10-05T16:10:21.935Z,3.05
2018-10-05T16:12:50.126Z,2.85
2018-10-05T16:15:18.296Z,2.50
2018-10-05T16:17:52.080Z,2.47
2018-10-05T16:20:20.277Z,2.17
2018-10-05T16:22:48.461Z,2.63
2018-10-05T16:25:16.635Z,2.20
2018-10-05T16:27:44.827Z,2.42
2018-10-05T16:30:13.008Z,2.27
2018-10-05T16:32:41.199Z,2.67
2018-10-05T16:35:09.362Z,2.50
2018-10-05T16:37:37.548Z,2.47
2018-10-05T16:40:05.872Z,2.50
2018-10-05T16:42:34.080Z,2.87
2018-10-05T16:45:02.277Z,3.92
2018-10-05T16:47:30.434Z,3.70
2018-10-05T16:49:58.629Z,3.73
2018-10-05T16:52:26.778Z,3.40
2018-10-05T16:54:54.974Z,3.10
2018-10-05T16:57:23.197Z,2.80
2018-10-05T16:59:51.307Z,3.10
2018-10-05T17:02:19.483Z,3.50
2018-10-05T17:04:47.652Z,3.40
2018-10-05T17:07:15.814Z,3.90
2018-10-05T17:09:43.995Z,4.00
2018-10-05T17:12:12.167Z,3.90
2018-10-05T17:14:40.350Z,4.77
2018-10-05T17:17:08.527Z,5.73
2018-10-05T17:19:36.711Z,4.63
2018-10-05T17:22:04.891Z,3.53
2018-10-05T17:24:33.058Z,3.73
2018-10-05T17:27:01.235Z,5.50
2018-10-05T17:29:29.543Z,4.90
2018-10-05T17:31:57.552Z,4.27
2018-10-05T17:34:25.721Z,4.30
2018-10-05T17:36:53.876Z,4.17
2018-10-05T17:39:22.060Z,4.57
2018-10-05T17:41:50.223Z,4.80
2018-10-05T17:44:18.392Z,4.00
2018-10-05T17:46:46.559Z,3.70
2018-10-05T17:49:14.715Z,4.53
2018-10-05T17:51:42.909Z,4.90
2018-10-05T17:54:11.054Z,3.23
2018-10-05T17:56:39.222Z,3.47
2018-10-05T17:59:07.370Z,3.60
2018-10-05T18:01:35.571Z,2.90
2018-10-05T18:04:03.758Z,3.13
2018-10-05T18:06:31.930Z,3.80
2018-10-05T18:09:00.087Z,3.57
2018-10-05T18:11:28.262Z,3.77
2018-10-05T18:13:56.446Z,3.00
2018-10-05T18:16:24.622Z,3.37
2018-10-05T18:18:52.787Z,3.40
2018-10-05T18:21:20.959Z,3.00
2018-10-05T18:23:49.123Z,3.40
2018-10-05T18:26:17.294Z,2.90
2018-10-05T18:28:45.439Z,2.90
2018-10-05T18:31:13.610Z,3.03
2018-10-05T18:33:41.822Z,3.20
2018-10-05T18:36:09.947Z,3.80
2018-10-05T18:38:38.106Z,4.53
2018-10-05T18:41:06.281Z,3.43
2018-10-05T18:43:34.439Z,4.10
2018-10-05T18:46:02.614Z,3.27
2018-10-05T18:48:30.779Z,3.63
2018-10-05T18:50:58.981Z,4.57
2018-10-05T18:53:27.100Z,4.70
2018-10-05T18:56:02.384Z,3.90
2018-10-05T18:58:30.538Z,3.30
2018-10-05T19:00:58.702Z,3.70
2018-10-05T19:03:26.871Z,3.30
2018-10-05T19:05:55.042Z,6.13
2018-10-05T19:08:23.215Z,4.20
2018-10-05T19:10:51.392Z,3.40
2018-10-05T19:13:19.542Z,3.37
2018-10-05T19:15:47.710Z,3.87
2018-10-05T19:18:15.870Z,3.57
2018-10-05T19:20:44.098Z,3.30
2018-10-05T19:23:12.274Z,3.30
2018-10-05T19:25:40.438Z,3.53
2018-10-05T19:28:08.605Z,3.57
2018-10-05T19:30:36.776Z,4.00
2018-10-05T19:33:04.970Z,5.10
2018-10-05T19:35:33.146Z,6.20
2018-10-05T19:38:01.319Z,4.50
2018-10-05T19:40:29.502Z,5.78
2018-10-05T19:42:57.681Z,4.90
2018-10-05T19:45:25.878Z,5.28
2018-10-05T19:47:54.075Z,6.00
2018-10-05T19:50:22.234Z,5.60
2018-10-05T19:52:50.414Z,6.00
2018-10-05T19:55:18.617Z,5.10
2018-10-05T19:57:46.766Z,5.20
2018-10-05T20:00:14.931Z,4.43
2018-10-05T20:02:43.100Z,4.40
2018-10-05T20:05:11.259Z,4.05
2018-10-05T20:07:39.453Z,4.25
2018-10-05T20:10:07.646Z,3.80
2018-10-05T20:12:35.842Z,3.60
2018-10-05T20:15:04.030Z,3.30
2018-10-05T20:17:32.251Z,3.40
2018-10-05T20:20:00.382Z,3.30
2018-10-05T20:22:28.563Z,2.90
2018-10-05T20:24:56.735Z,3.00
2018-10-05T20:27:24.939Z,3.30
2018-10-05T20:29:53.111Z,3.10
2018-10-05T20:32:21.335Z,4.53
2018-10-05T20:34:49.462Z,3.42
2018-10-05T20:37:17.698Z,3.95
2018-10-05T20:39:45.838Z,4.50
2018-10-05T20:42:14.043Z,6.50
2018-10-05T20:44:42.219Z,7.17
2018-10-05T20:47:10.381Z,6.03
2018-10-05T20:49:38.555Z,5.93
2018-10-05T20:52:06.731Z,6.30
2018-10-05T20:54:34.899Z,4.40
2018-10-05T20:57:03.066Z,3.75
2018-10-05T20:59:31.255Z,4.05
2018-10-05T21:01:59.452Z,3.90
2018-10-05T21:04:27.640Z,3.62
2018-10-05T21:06:55.859Z,3.60
2018-10-05T21:09:24.031Z,3.30
2018-10-05T21:11:52.202Z,3.20
2018-10-05T21:14:20.366Z,3.30
2018-10-05T21:16:48.531Z,2.83
2018-10-05T21:19:16.707Z,3.07
2018-10-05T21:21:44.875Z,3.43
2018-10-05T21:24:13.075Z,3.53
2018-10-05T21:26:41.239Z,3.50
2018-10-05T21:29:09.403Z,3.73
2018-10-05T21:31:37.567Z,3.47
2018-10-05T21:34:05.746Z,3.90
2018-10-05T21:36:33.910Z,4.20
2018-10-05T21:39:02.109Z,3.72
2018-10-05T21:41:30.311Z,3.83
2018-10-05T21:43:58.515Z,3.55
2018-10-05T21:46:26.896Z,3.90
2018-10-05T21:48:55.066Z,3.30
2018-10-05T21:51:23.243Z,3.67
2018-10-05T21:53:51.406Z,4.37
2018-10-05T21:56:19.566Z,3.30
2018-10-05T21:58:47.810Z,2.80
2018-10-05T22:01:15.973Z,3.20
2018-10-05T22:03:47.959Z,2.90
2018-10-05T22:06:17.798Z,3.70
2018-10-05T22:08:45.990Z,4.30
2018-10-05T22:11:14.613Z,3.58
2018-10-05T22:13:43.112Z,3.70
2018-10-05T22:16:11.714Z,3.77
2018-10-05T22:18:39.989Z,3.57
2018-10-05T22:21:08.390Z,3.50
2018-10-05T22:23:36.547Z,3.40
2018-10-05T22:26:04.726Z,3.60
2018-10-05T22:28:32.911Z,4.03
2018-10-05T22:31:01.066Z,3.67
2018-10-05T22:33:29.243Z,3.63
2018-10-05T22:35:57.440Z,3.50
2018-10-05T22:38:25.609Z,3.10
2018-10-05T22:40:53.794Z,3.50
2018-10-05T22:43:21.972Z,3.53
2018-10-05T22:45:50.151Z,3.42
2018-10-05T22:48:18.320Z,3.60
2018-10-05T22:50:46.511Z,3.77
2018-10-05T22:53:14.767Z,3.70
2018-10-05T22:55:42.976Z,3.22
2018-10-05T22:58:11.168Z,3.30
2018-10-05T23:00:39.360Z,3.25
2018-10-05T23:03:07.522Z,3.40
2018-10-05T23:05:35.690Z,4.00
2018-10-05T23:08:03.867Z,3.22
2018-10-05T23:10:32.052Z,3.50
2018-10-05T23:13:00.219Z,2.90
2018-10-05T23:15:28.421Z,3.50
2018-10-05T23:17:56.595Z,3.00
2018-10-05T23:20:24.778Z,3.25
2018-10-05T23:22:52.943Z,2.98
2018-10-05T23:25:21.133Z,3.33
2018-10-05T23:27:49.311Z,3.10
2018-10-05T23:30:17.496Z,3.00
2018-10-05T23:32:45.663Z,3.60
2018-10-05T23:35:13.838Z,3.60
2018-10-05T23:37:42.005Z,3.10
2018-10-05T23:40:10.194Z,3.30
2018-10-05T23:42:38.386Z,3.20
2018-10-05T23:45:06.538Z,3.60
2018-10-05T23:47:34.704Z,3.50
2018-10-05T23:50:02.887Z,3.58
2018-10-05T23:52:35.110Z,3.85
2018-10-05T23:55:03.758Z,3.33
2018-10-05T23:57:31.927Z,3.50
